Time;durP1;ratioP1;P1;durP2;ratioP2;P2;SDS_P1;SDS_P2;PMS_P1;PMS_P2;Temp;Humidity;BMP_temperature;BMP_pressure;BME280_temperature;BME280_humidity;BME280_pressure;Samples;Min_cycle;Max_cycle;Signal;HPM_P1;HPM_P2
2023/03/04 00:01:16;;;;;;;36.00;19.98;;;1.20;99.90;;;;;;4992119;28;20038;-57
2023/03/04 00:04:02;;;;;;;37.58;21.80;;;1.20;99.90;;;;;;4990177;28;20089;-64
2023/03/04 00:06:48;;;;;;;34.30;19.58;;;1.10;99.90;;;;;;4958761;28;20022;-59
2023/03/04 00:09:34;;;;;;;33.95;19.90;;;1.00;99.90;;;;;;4992283;28;20050;-60
2023/03/04 00:12:20;;;;;;;39.13;20.42;;;1.10;99.90;;;;;;4993662;28;20022;-61
2023/03/04 00:15:06;;;;;;;39.20;21.27;;;1.00;99.90;;;;;;4993355;28;20038;-62
2023/03/04 00:17:52;;;;;;;37.03;20.15;;;1.10;99.90;;;;;;4984014;28;20031;-65
2023/03/04 00:20:38;;;;;;;35.38;20.15;;;1.10;99.90;;;;;;4980688;28;20030;-69
2023/03/04 00:23:24;;;;;;;35.67;19.48;;;1.10;99.90;;;;;;4991860;28;20057;-64
2023/03/04 00:26:12;;;;;;;32.80;19.00;;;1.00;99.90;;;;;;4987808;28;20551;-63
2023/03/04 00:28:58;;;;;;;35.88;20.08;;;0.90;99.90;;;;;;4990704;28;20035;-68
2023/03/04 00:31:43;;;;;;;34.28;19.50;;;0.80;99.90;;;;;;4975312;28;20030;-63
2023/03/04 00:34:30;;;;;;;33.03;19.15;;;1.00;99.90;;;;;;4976606;28;20997;-58
2023/03/04 00:37:16;;;;;;;37.90;19.70;;;1.00;99.90;;;;;;4992377;28;20034;-50
2023/03/04 00:40:03;;;;;;;37.20;19.50;;;1.00;99.90;;;;;;4992905;28;20061;-60
2023/03/04 00:42:49;;;;;;;34.00;19.65;;;0.90;99.90;;;;;;4991517;28;20046;-50
2023/03/04 00:45:34;;;;;;;34.72;19.73;;;1.00;99.90;;;;;;4992168;28;20451;-64
2023/03/04 00:48:20;;;;;;;35.47;20.00;;;1.00;99.90;;;;;;4975485;28;20516;-55
2023/03/04 00:51:06;;;;;;;35.55;20.67;;;1.00;99.90;;;;;;4990729;28;20030;-48
2023/03/04 00:53:52;;;;;;;34.92;19.98;;;1.30;99.90;;;;;;4991501;28;20517;-64
2023/03/04 00:56:38;;;;;;;37.05;20.75;;;1.40;99.90;;;;;;4978202;28;20036;-48
2023/03/04 00:59:24;;;;;;;35.33;19.17;;;1.40;99.90;;;;;;4999700;28;20035;-52
2023/03/04 01:02:11;;;;;;;37.38;19.17;;;1.30;99.90;;;;;;4981507;28;20043;-51
2023/03/04 01:04:57;;;;;;;39.05;20.63;;;1.20;99.90;;;;;;4992212;28;20042;-49
2023/03/04 01:07:43;;;;;;;36.58;20.30;;;1.10;99.90;;;;;;4990502;28;20026;-53
2023/03/04 01:10:30;;;;;;;36.53;19.92;;;1.00;99.90;;;;;;4991648;28;20483;-49
2023/03/04 01:13:16;;;;;;;35.60;19.60;;;1.00;99.90;;;;;;4989510;28;20038;-48
2023/03/04 01:16:02;;;;;;;35.70;19.38;;;1.10;99.90;;;;;;4991756;28;20030;-49
2023/03/04 01:18:48;;;;;;;34.22;19.52;;;1.10;99.90;;;;;;4990830;28;20398;-47
2023/03/04 01:21:34;;;;;;;36.08;19.80;;;0.90;99.90;;;;;;4995435;28;20038;-47
2023/03/04 01:24:20;;;;;;;40.05;20.85;;;0.90;99.90;;;;;;4992169;28;20111;-49
2023/03/04 01:27:06;;;;;;;36.25;21.00;;;0.90;99.90;;;;;;4993155;28;20495;-48
2023/03/04 01:29:52;;;;;;;38.80;21.40;;;0.90;99.90;;;;;;4992208;28;20105;-51
2023/03/04 01:32:38;;;;;;;32.97;19.92;;;0.90;99.90;;;;;;4992032;28;20042;-50
2023/03/04 01:35:24;;;;;;;35.85;20.25;;;1.00;99.90;;;;;;4993134;28;20057;-49
2023/03/04 01:38:11;;;;;;;37.95;21.15;;;1.00;99.90;;;;;;4992282;28;20089;-48
2023/03/04 01:40:57;;;;;;;38.28;20.17;;;1.00;99.90;;;;;;4992780;28;20026;-48
2023/03/04 01:43:44;;;;;;;36.53;21.15;;;1.00;99.90;;;;;;4993073;28;20153;-47
2023/03/04 01:46:30;;;;;;;36.50;19.48;;;1.00;99.90;;;;;;4975427;28;20034;-48
2023/03/04 01:49:17;;;;;;;36.50;20.75;;;1.10;99.90;;;;;;4992061;28;20023;-47
2023/03/04 01:52:03;;;;;;;38.63;20.92;;;1.20;99.90;;;;;;4992681;28;20034;-47
2023/03/04 01:54:49;;;;;;;33.70;20.05;;;1.10;99.90;;;;;;4992842;28;20537;-51
2023/03/04 01:57:35;;;;;;;36.22;20.77;;;1.10;99.90;;;;;;4986311;28;20522;-48
2023/03/04 02:00:27;;;;;;;35.63;19.42;;;1.20;99.90;;;;;;4992206;28;20137;-49
2023/03/04 02:03:18;;;;;;;38.17;21.38;;;1.20;99.90;;;;;;4991746;28;20052;-47
2023/03/04 02:06:04;;;;;;;37.10;21.17;;;1.20;99.90;;;;;;4976776;28;20065;-50
2023/03/04 02:08:50;;;;;;;38.88;21.45;;;1.20;99.90;;;;;;4991676;28;20033;-48
2023/03/04 02:11:37;;;;;;;37.67;19.77;;;1.20;99.90;;;;;;4973069;28;20094;-53
2023/03/04 02:14:23;;;;;;;38.58;21.13;;;1.20;99.90;;;;;;4973791;28;20530;-49
2023/03/04 02:17:11;;;;;;;38.15;19.92;;;1.30;99.90;;;;;;4973737;28;20035;-48
2023/03/04 02:20:00;;;;;;;33.05;20.42;;;1.30;99.90;;;;;;4984207;28;20037;-47
2023/03/04 02:22:59;;;;;;;38.33;21.42;;;1.30;99.90;;;;;;4967722;28;20023;-47
2023/03/04 02:26:06;;;;;;;40.45;21.40;;;1.20;99.90;;;;;;4987573;28;20384;-49
2023/03/04 02:28:53;;;;;;;41.75;22.73;;;1.30;99.90;;;;;;4991739;28;20034;-48
2023/03/04 02:31:46;;;;;;;40.97;22.77;;;1.30;99.90;;;;;;4990709;28;20034;-47
2023/03/04 02:34:35;;;;;;;39.55;21.27;;;1.30;99.90;;;;;;4978305;28;20031;-48
2023/03/04 02:37:21;;;;;;;38.38;20.67;;;1.30;99.90;;;;;;4992002;28;20030;-49
2023/03/04 02:40:19;;;;;;;37.35;21.85;;;1.30;99.90;;;;;;4990631;28;20034;-52
2023/03/04 02:43:08;;;;;;;41.58;22.77;;;1.10;99.90;;;;;;4972028;28;20031;-52
2023/03/04 02:45:54;;;;;;;38.47;22.50;;;1.10;99.90;;;;;;4983572;28;20062;-47
2023/03/04 02:48:40;;;;;;;44.60;23.98;;;1.20;99.90;;;;;;4991109;28;20037;-52
2023/03/04 02:51:26;;;;;;;40.42;21.75;;;1.20;99.90;;;;;;4990912;28;20042;-49
2023/03/04 02:54:16;;;;;;;43.65;22.02;;;1.30;99.90;;;;;;4998236;28;20034;-46
2023/03/04 02:57:06;;;;;;;35.63;22.13;;;1.30;99.90;;;;;;5007666;28;20025;-48
2023/03/04 02:59:51;;;;;;;40.22;22.75;;;1.40;99.90;;;;;;4971371;28;20034;-46
2023/03/04 03:02:37;;;;;;;40.33;23.48;;;1.40;99.90;;;;;;4975438;28;20083;-53
2023/03/04 03:05:25;;;;;;;36.03;20.27;;;1.40;99.90;;;;;;4990755;28;20037;-50
2023/03/04 03:08:11;;;;;;;37.08;21.55;;;1.50;99.90;;;;;;4990847;28;20041;-48
2023/03/04 03:10:57;;;;;;;40.38;21.58;;;1.50;99.90;;;;;;4990657;28;20053;-47
2023/03/04 03:13:43;;;;;;;36.88;20.00;;;1.60;99.90;;;;;;4971271;28;20034;-48
2023/03/04 03:16:29;;;;;;;39.65;20.27;;;1.60;99.90;;;;;;4973603;28;20844;-50
2023/03/04 03:19:15;;;;;;;37.33;20.27;;;1.70;99.90;;;;;;4993233;28;20054;-49
2023/03/04 03:22:01;;;;;;;34.40;19.38;;;1.80;99.90;;;;;;4979470;28;20114;-47
2023/03/04 03:24:47;;;;;;;36.47;18.85;;;1.80;99.90;;;;;;4993662;28;20034;-52
2023/03/04 03:27:34;;;;;;;41.53;17.85;;;2.00;99.90;;;;;;4994971;28;20026;-50
2023/03/04 03:30:20;;;;;;;33.30;19.30;;;2.00;99.90;;;;;;4995608;28;20121;-47
2023/03/04 03:33:05;;;;;;;36.45;20.15;;;2.00;99.90;;;;;;4994295;28;20033;-48
2023/03/04 03:35:51;;;;;;;33.67;18.85;;;2.00;99.90;;;;;;4995311;28;20026;-48
2023/03/04 03:38:37;;;;;;;34.42;19.08;;;2.00;99.90;;;;;;4995421;28;20029;-52
2023/03/04 03:41:23;;;;;;;34.05;18.80;;;2.00;99.90;;;;;;4994304;28;20034;-51
2023/03/04 03:44:09;;;;;;;33.47;18.67;;;2.00;99.90;;;;;;4994058;28;20061;-51
2023/03/04 03:46:55;;;;;;;32.10;18.60;;;2.00;99.90;;;;;;4995652;28;20030;-51
2023/03/04 03:49:41;;;;;;;31.00;18.23;;;1.90;99.90;;;;;;4966380;28;20027;-53
2023/03/04 03:52:27;;;;;;;34.83;19.73;;;2.00;99.90;;;;;;4994096;28;20037;-53
2023/03/04 03:55:13;;;;;;;35.08;18.08;;;2.00;99.90;;;;;;4996744;28;20030;-52
2023/03/04 03:57:59;;;;;;;34.65;17.55;;;2.00;99.90;;;;;;4994941;28;20038;-50
2023/03/04 04:00:45;;;;;;;29.90;17.33;;;2.10;99.90;;;;;;4994363;28;20030;-53
2023/03/04 04:03:31;;;;;;;33.95;18.17;;;2.00;99.90;;;;;;4994659;28;20038;-49
2023/03/04 04:06:17;;;;;;;35.67;18.65;;;2.00;99.90;;;;;;4994378;28;20089;-48
2023/03/04 04:09:03;;;;;;;33.78;19.58;;;2.00;99.90;;;;;;4995890;28;20023;-50
2023/03/04 04:11:49;;;;;;;32.63;18.02;;;2.00;99.90;;;;;;4996488;28;20028;-51
2023/03/04 04:14:35;;;;;;;30.67;17.40;;;2.00;99.90;;;;;;4996808;28;20141;-51
2023/03/04 04:17:20;;;;;;;36.60;18.60;;;2.00;99.90;;;;;;4996244;28;20050;-50
2023/03/04 04:20:07;;;;;;;31.95;17.05;;;2.10;99.90;;;;;;4995213;28;20026;-49
2023/03/04 04:22:53;;;;;;;35.83;18.55;;;2.00;99.90;;;;;;4996013;28;20034;-54
2023/03/04 04:25:39;;;;;;;33.50;17.98;;;2.00;99.90;;;;;;4996686;28;20455;-51
2023/03/04 04:28:25;;;;;;;36.38;19.55;;;2.00;99.90;;;;;;4981823;28;20065;-51
2023/03/04 04:31:11;;;;;;;34.65;18.25;;;2.00;99.90;;;;;;4993975;28;20041;-47
2023/03/04 04:33:57;;;;;;;33.67;16.98;;;2.20;99.90;;;;;;4978967;28;20037;-50
2023/03/04 04:36:43;;;;;;;29.63;16.45;;;2.20;99.90;;;;;;4993660;28;20109;-51
2023/03/04 04:39:29;;;;;;;29.70;16.40;;;2.10;99.90;;;;;;4994264;28;20037;-50
2023/03/04 04:42:15;;;;;;;28.95;15.30;;;2.30;99.90;;;;;;4975220;28;20027;-48
2023/03/04 04:45:01;;;;;;;29.08;15.88;;;2.40;99.90;;;;;;4986157;28;20034;-49
2023/03/04 04:47:47;;;;;;;30.52;15.52;;;2.50;99.90;;;;;;4971655;28;20031;-52
2023/03/04 04:50:33;;;;;;;33.28;16.27;;;2.50;99.90;;;;;;4974406;28;20070;-50
2023/03/04 04:53:19;;;;;;;33.33;17.65;;;2.40;99.90;;;;;;4986543;28;20037;-50
2023/03/04 04:56:14;;;;;;;29.58;14.30;;;2.40;99.90;;;;;;4979425;28;20121;-48
2023/03/04 04:59:03;;;;;;;29.25;14.68;;;2.50;99.90;;;;;;4994598;28;20062;-49
2023/03/04 05:01:49;;;;;;;25.70;13.88;;;2.50;99.90;;;;;;4993355;28;20056;-49
2023/03/04 05:04:35;;;;;;;27.83;15.32;;;2.50;99.90;;;;;;4994035;28;20023;-48
2023/03/04 05:07:20;;;;;;;29.83;14.52;;;2.60;99.90;;;;;;4992177;28;20065;-48
2023/03/04 05:10:07;;;;;;;35.35;13.95;;;2.60;99.90;;;;;;4993098;28;20517;-49
2023/03/04 05:12:53;;;;;;;30.17;14.68;;;2.60;99.90;;;;;;4991789;28;20407;-50
2023/03/04 05:15:39;;;;;;;26.85;15.27;;;2.60;99.90;;;;;;4973364;28;20412;-51
2023/03/04 05:18:26;;;;;;;34.45;14.52;;;2.70;99.90;;;;;;4989341;28;20411;-51
2023/03/04 05:21:12;;;;;;;35.13;16.65;;;2.60;99.90;;;;;;4992659;28;20030;-51
2023/03/04 05:23:58;;;;;;;26.33;14.77;;;2.60;99.90;;;;;;4993016;28;20026;-50
2023/03/04 05:26:43;;;;;;;32.08;16.05;;;2.60;99.90;;;;;;4993148;28;20058;-51
2023/03/04 05:29:29;;;;;;;33.13;14.98;;;2.60;99.90;;;;;;4992477;28;20050;-54
2023/03/04 05:32:15;;;;;;;31.55;16.00;;;2.70;99.90;;;;;;4992493;28;20030;-50
2023/03/04 05:35:01;;;;;;;29.73;15.15;;;2.60;99.90;;;;;;4993596;28;20075;-49
2023/03/04 05:37:47;;;;;;;32.33;15.68;;;2.60;99.90;;;;;;4993088;28;20077;-49
2023/03/04 05:40:34;;;;;;;30.98;15.60;;;2.50;99.90;;;;;;4991648;28;20034;-49
2023/03/04 05:43:21;;;;;;;33.45;17.13;;;2.60;99.90;;;;;;4978729;28;20027;-48
2023/03/04 05:46:12;;;;;;;28.83;16.70;;;2.70;99.90;;;;;;4992695;28;20038;-49
2023/03/04 05:48:57;;;;;;;31.50;14.80;;;2.70;99.90;;;;;;4974278;28;20019;-50
2023/03/04 05:51:43;;;;;;;28.20;15.25;;;2.70;99.90;;;;;;4977847;28;20026;-48
2023/03/04 05:54:29;;;;;;;38.95;17.30;;;2.60;99.90;;;;;;4991621;28;20403;-48
2023/03/04 05:57:15;;;;;;;30.60;17.20;;;2.70;99.90;;;;;;4991465;28;20535;-47
2023/03/04 06:00:04;;;;;;;34.55;16.90;;;2.80;99.90;;;;;;4992035;28;20034;-50
2023/03/04 06:02:50;;;;;;;28.65;16.13;;;2.80;99.90;;;;;;4992348;28;20438;-50
2023/03/04 06:05:36;;;;;;;28.77;15.73;;;2.70;99.90;;;;;;4979685;28;20086;-50
2023/03/04 06:08:22;;;;;;;30.05;16.55;;;2.80;99.90;;;;;;4973504;28;20027;-49
2023/03/04 06:11:08;;;;;;;31.27;16.20;;;2.80;99.90;;;;;;4991829;28;20506;-50
2023/03/04 06:13:54;;;;;;;38.28;17.13;;;2.80;99.90;;;;;;4986283;28;20023;-53
2023/03/04 06:16:40;;;;;;;34.22;16.65;;;2.80;99.90;;;;;;4958220;28;20031;-50
2023/03/04 06:19:26;;;;;;;34.83;16.77;;;2.80;99.90;;;;;;4976430;28;20533;-48
2023/03/04 06:22:12;;;;;;;28.23;15.57;;;2.90;99.90;;;;;;4992147;28;20399;-52
2023/03/04 06:24:58;;;;;;;30.55;16.85;;;2.90;99.90;;;;;;4991314;28;20034;-50
2023/03/04 06:27:44;;;;;;;27.77;16.05;;;2.80;99.90;;;;;;4991756;28;20030;-54
2023/03/04 06:30:30;;;;;;;35.20;16.77;;;2.80;99.90;;;;;;4992112;28;20018;-53
2023/03/04 06:33:15;;;;;;;32.72;16.92;;;2.80;99.90;;;;;;4991754;28;20034;-50
2023/03/04 06:36:01;;;;;;;31.25;16.77;;;2.80;99.90;;;;;;4992071;28;20085;-51
2023/03/04 06:38:47;;;;;;;31.52;16.55;;;2.80;99.90;;;;;;4992792;28;20082;-49
2023/03/04 06:41:35;;;;;;;33.17;15.07;;;2.80;99.90;;;;;;4992001;28;20077;-50
2023/03/04 06:44:21;;;;;;;33.13;16.00;;;2.80;99.90;;;;;;4991692;28;20161;-51
2023/03/04 06:47:07;;;;;;;32.95;16.92;;;2.80;99.90;;;;;;4976682;28;20069;-52
2023/03/04 06:49:53;;;;;;;30.48;15.98;;;2.80;99.90;;;;;;4990940;28;20042;-47
2023/03/04 06:52:40;;;;;;;32.47;15.68;;;2.80;99.90;;;;;;4990080;28;20034;-48
2023/03/04 06:55:26;;;;;;;30.38;15.57;;;2.70;99.90;;;;;;4992093;28;20034;-48
2023/03/04 06:58:12;;;;;;;33.03;15.68;;;2.80;99.90;;;;;;5001069;28;20033;-56
2023/03/04 07:01:12;;;;;;;29.15;15.02;;;2.70;99.90;;;;;;4992998;28;20030;-51
2023/03/04 07:03:58;;;;;;;34.13;15.95;;;2.80;99.90;;;;;;4999119;28;20026;-49
2023/03/04 07:06:44;;;;;;;30.27;15.48;;;2.90;99.90;;;;;;4991014;28;20030;-54
2023/03/04 07:09:30;;;;;;;32.40;16.00;;;2.80;99.90;;;;;;4992033;28;20031;-51
2023/03/04 07:12:16;;;;;;;32.33;15.68;;;2.90;99.90;;;;;;4992096;28;20057;-52
2023/03/04 07:15:02;;;;;;;31.50;15.88;;;2.90;99.90;;;;;;4991307;28;20117;-50
2023/03/04 07:17:48;;;;;;;37.45;16.00;;;2.80;99.90;;;;;;4992531;28;20077;-51
2023/03/04 07:20:34;;;;;;;33.10;15.43;;;2.80;99.90;;;;;;4991668;28;20041;-52
2023/03/04 07:23:19;;;;;;;27.75;14.13;;;2.80;99.90;;;;;;4991082;28;20026;-53
2023/03/04 07:26:06;;;;;;;28.38;14.02;;;2.90;99.90;;;;;;4999382;28;20089;-53
2023/03/04 07:28:53;;;;;;;29.38;13.60;;;2.90;99.90;;;;;;4958476;28;20051;-54
2023/03/04 07:31:39;;;;;;;23.00;13.05;;;3.00;99.90;;;;;;4985700;28;20033;-50
2023/03/04 07:34:25;;;;;;;25.25;13.02;;;3.10;99.90;;;;;;4997583;28;20037;-54
2023/03/04 07:37:11;;;;;;;28.42;12.95;;;3.10;99.90;;;;;;4996607;28;20030;-53
2023/03/04 07:39:57;;;;;;;29.08;12.57;;;3.20;99.90;;;;;;4992035;28;20030;-54
2023/03/04 07:42:43;;;;;;;25.90;13.40;;;3.30;99.90;;;;;;4991285;28;20018;-50
2023/03/04 07:45:29;;;;;;;25.60;12.13;;;3.30;99.90;;;;;;4990875;28;20407;-52
2023/03/04 07:48:15;;;;;;;24.05;11.80;;;3.20;99.90;;;;;;4988526;28;20034;-51
2023/03/04 07:51:06;;;;;;;25.05;12.10;;;3.30;99.90;;;;;;4972182;28;20570;-53
2023/03/04 07:53:56;;;;;;;22.00;10.80;;;3.40;99.90;;;;;;4958388;28;20035;-50
2023/03/04 07:56:42;;;;;;;24.13;10.90;;;3.40;99.90;;;;;;4957578;28;20055;-51
2023/03/04 07:59:28;;;;;;;22.63;10.82;;;3.40;99.90;;;;;;4967971;28;20026;-52
2023/03/04 08:02:14;;;;;;;20.23;11.00;;;3.60;99.90;;;;;;4990708;28;20031;-53
2023/03/04 08:05:00;;;;;;;25.50;9.85;;;3.60;99.90;;;;;;5000114;28;20038;-52
2023/03/04 08:07:46;;;;;;;24.83;9.57;;;3.60;99.90;;;;;;5009435;28;20030;-53
2023/03/04 08:10:33;;;;;;;21.10;9.98;;;3.60;99.90;;;;;;4975660;28;20031;-45
2023/03/04 08:13:18;;;;;;;23.48;10.32;;;3.60;99.90;;;;;;4994208;28;20083;-47
2023/03/04 08:16:05;;;;;;;29.38;10.55;;;3.70;99.90;;;;;;4978732;28;20031;-46
2023/03/04 08:18:54;;;;;;;18.05;8.60;;;3.70;99.90;;;;;;4981324;28;20557;-50
2023/03/04 08:21:40;;;;;;;17.00;8.90;;;3.80;99.90;;;;;;4994117;28;20479;-45
2023/03/04 08:24:26;;;;;;;15.77;8.05;;;3.80;99.90;;;;;;4993252;28;20075;-49
2023/03/04 08:27:12;;;;;;;18.98;9.35;;;3.80;99.90;;;;;;4995417;28;20030;-52
2023/03/04 08:29:58;;;;;;;14.23;8.02;;;3.80;99.90;;;;;;4989168;28;20022;-50
2023/03/04 08:32:44;;;;;;;24.20;8.88;;;3.90;99.90;;;;;;4994027;28;20035;-45
2023/03/04 08:35:31;;;;;;;19.33;8.02;;;4.00;99.90;;;;;;4993799;28;20030;-48
2023/03/04 08:38:16;;;;;;;17.73;8.52;;;4.00;99.90;;;;;;4995055;28;20032;-44
2023/03/04 08:41:03;;;;;;;20.80;8.65;;;4.10;99.90;;;;;;4961807;28;20039;-46
2023/03/04 08:43:49;;;;;;;18.87;8.67;;;4.10;99.90;;;;;;4973076;28;20496;-43
2023/03/04 08:46:35;;;;;;;19.35;7.65;;;4.10;99.90;;;;;;4994018;28;20042;-45
2023/03/04 08:49:21;;;;;;;17.00;8.30;;;4.10;99.90;;;;;;4996254;28;20042;-44
2023/03/04 08:52:07;;;;;;;18.85;7.43;;;4.10;99.90;;;;;;4993904;28;20030;-45
2023/03/04 08:54:53;;;;;;;22.67;8.82;;;4.10;99.90;;;;;;4995075;28;20030;-45
2023/03/04 08:57:39;;;;;;;19.13;7.35;;;4.10;99.90;;;;;;4994202;28;20054;-45
2023/03/04 09:00:25;;;;;;;16.60;8.25;;;4.20;99.90;;;;;;4993837;28;20041;-46
2023/03/04 09:03:11;;;;;;;18.00;8.77;;;4.20;99.90;;;;;;4994194;28;20704;-46
2023/03/04 09:05:57;;;;;;;19.58;7.82;;;4.30;99.90;;;;;;4986530;28;20030;-46
2023/03/04 09:08:44;;;;;;;13.00;6.90;;;4.30;99.90;;;;;;4983528;28;20110;-47
2023/03/04 09:11:30;;;;;;;16.50;7.38;;;4.40;99.90;;;;;;4979333;28;20030;-44
2023/03/04 09:14:16;;;;;;;19.60;7.50;;;4.40;99.90;;;;;;4979385;28;20105;-45
2023/03/04 09:17:03;;;;;;;13.27;7.47;;;4.40;99.90;;;;;;4998597;28;20030;-45
2023/03/04 09:19:49;;;;;;;19.08;8.02;;;4.50;99.90;;;;;;5003292;28;20030;-55
2023/03/04 09:22:37;;;;;;;16.48;7.47;;;4.50;99.90;;;;;;5011549;28;20026;-45
2023/03/04 09:25:23;;;;;;;19.88;7.15;;;4.50;99.90;;;;;;4994549;28;20069;-53
2023/03/04 09:28:11;;;;;;;20.02;8.57;;;4.50;99.90;;;;;;4992784;28;20113;-44
2023/03/04 09:30:56;;;;;;;18.70;7.95;;;4.40;99.90;;;;;;4978896;28;20019;-44
2023/03/04 09:33:42;;;;;;;19.10;7.15;;;4.50;99.90;;;;;;4993626;28;20037;-46
2023/03/04 09:36:28;;;;;;;15.80;7.88;;;4.50;99.90;;;;;;4992913;28;20529;-44
2023/03/04 09:39:14;;;;;;;13.00;7.28;;;4.60;99.90;;;;;;4992598;28;20045;-44
2023/03/04 09:42:03;;;;;;;15.60;6.50;;;4.70;99.90;;;;;;4993348;28;20022;-47
2023/03/04 09:44:49;;;;;;;18.42;7.38;;;4.60;99.90;;;;;;4994040;28;20031;-46
2023/03/04 09:47:37;;;;;;;20.10;7.07;;;4.60;99.90;;;;;;4978245;28;20042;-43
2023/03/04 09:50:23;;;;;;;10.50;6.05;;;4.70;99.90;;;;;;4993543;28;20030;-49
2023/03/04 09:53:12;;;;;;;13.43;6.03;;;4.80;99.90;;;;;;4992196;28;20030;-45
2023/03/04 09:55:57;;;;;;;13.27;6.18;;;4.80;99.90;;;;;;4993102;28;20513;-43
2023/03/04 09:58:52;;;;;;;12.57;5.68;;;4.90;99.90;;;;;;4992466;28;20045;-44
2023/03/04 10:01:41;;;;;;;16.50;5.40;;;5.00;99.90;;;;;;4992300;28;20372;-51
2023/03/04 10:04:46;;;;;;;13.43;5.55;;;4.80;99.90;;;;;;4992481;28;20030;-45
2023/03/04 10:07:39;;;;;;;11.48;5.10;;;4.90;99.90;;;;;;4992499;28;20030;-44
2023/03/04 10:10:38;;;;;;;9.02;4.57;;;4.90;99.90;;;;;;4967976;28;20034;-47
2023/03/04 10:13:40;;;;;;;13.88;5.63;;;5.10;99.90;;;;;;4975508;28;20035;-43
2023/03/04 10:16:34;;;;;;;11.27;4.80;;;5.10;99.90;;;;;;4987218;28;20076;-48
2023/03/04 10:19:23;;;;;;;9.00;4.80;;;5.10;99.90;;;;;;4990004;28;20097;-49
2023/03/04 10:22:35;;;;;;;8.38;4.90;;;5.10;99.90;;;;;;4991321;28;20622;-46
2023/03/04 10:25:22;;;;;;;8.82;4.03;;;5.20;99.90;;;;;;4992178;28;20564;-43
2023/03/04 10:28:26;;;;;;;10.75;4.78;;;5.20;99.90;;;;;;4989244;28;20029;-45
2023/03/04 10:31:36;;;;;;;8.77;4.55;;;5.30;99.90;;;;;;4986166;28;20030;-44
2023/03/04 10:34:23;;;;;;;9.40;4.97;;;5.30;99.90;;;;;;4990969;28;20030;-47
2023/03/04 10:37:10;;;;;;;10.40;4.40;;;5.30;99.90;;;;;;4977908;28;20422;-44
2023/03/04 10:40:00;;;;;;;10.30;4.07;;;5.30;99.90;;;;;;4991597;28;20081;-46
2023/03/04 10:42:48;;;;;;;12.77;4.68;;;5.30;99.90;;;;;;4992356;28;20536;-45
2023/03/04 10:45:39;;;;;;;13.75;4.55;;;5.40;99.90;;;;;;4980917;28;20066;-46
2023/03/04 10:48:30;;;;;;;5.95;4.10;;;5.20;99.90;;;;;;4991280;28;20030;-44
2023/03/04 10:51:20;;;;;;;11.57;4.35;;;5.30;99.90;;;;;;4989010;28;20098;-46
2023/03/04 10:54:16;;;;;;;11.50;4.97;;;5.40;99.90;;;;;;4999961;28;20046;-49
2023/03/04 10:57:14;;;;;;;9.65;4.85;;;5.40;99.90;;;;;;4990559;28;20491;-53
2023/03/04 11:00:26;;;;;;;9.75;4.45;;;5.50;99.90;;;;;;4991313;28;20081;-45
2023/03/04 11:03:26;;;;;;;7.20;3.75;;;5.50;99.90;;;;;;4983581;28;20026;-51
2023/03/04 11:06:15;;;;;;;5.03;3.22;;;5.60;99.90;;;;;;4998384;28;20038;-46
2023/03/04 11:09:01;;;;;;;7.13;3.83;;;5.70;99.90;;;;;;4992757;28;20101;-47
2023/03/04 11:11:50;;;;;;;11.93;6.05;;;6.00;99.90;;;;;;4991813;28;20034;-46
2023/03/04 11:14:44;;;;;;;15.23;7.97;;;6.30;99.90;;;;;;4990129;28;20030;-49
2023/03/04 11:17:47;;;;;;;18.45;9.75;;;6.40;99.90;;;;;;4981068;28;20056;-50
2023/03/04 11:20:39;;;;;;;8.93;4.22;;;6.50;99.90;;;;;;4990917;28;20030;-47
2023/03/04 11:23:46;;;;;;;23.60;13.45;;;6.60;99.90;;;;;;4997885;28;20053;-46
2023/03/04 11:26:52;;;;;;;45.38;23.30;;;6.50;99.90;;;;;;4978520;28;20034;-48
2023/03/04 11:29:51;;;;;;;18.02;13.15;;;6.60;99.90;;;;;;4956821;28;20033;-63
2023/03/04 11:32:42;;;;;;;9.02;4.80;;;6.60;99.90;;;;;;4986830;28;20035;-48
2023/03/04 11:35:38;;;;;;;20.88;13.07;;;6.60;99.90;;;;;;4991085;28;20041;-49
2023/03/04 11:38:32;;;;;;;7.13;4.55;;;6.60;99.90;;;;;;4989320;28;20046;-50
2023/03/04 11:41:30;;;;;;;15.05;8.50;;;6.60;99.90;;;;;;4992913;28;20392;-48
2023/03/04 11:44:16;;;;;;;15.27;4.63;;;6.70;99.90;;;;;;4979358;28;20030;-52
2023/03/04 11:47:27;;;;;;;6.13;4.10;;;6.70;99.90;;;;;;4991726;28;20026;-56
2023/03/04 11:50:28;;;;;;;5.95;3.65;;;6.70;99.90;;;;;;4978467;28;20022;-55
2023/03/04 11:53:29;;;;;;;6.13;3.45;;;6.70;99.90;;;;;;4993335;28;20015;-51
2023/03/04 11:56:33;;;;;;;5.63;3.47;;;6.60;99.90;;;;;;4972779;28;20060;-51
2023/03/04 11:59:36;;;;;;;4.45;3.00;;;6.70;99.90;;;;;;4986642;28;20083;-60
2023/03/04 12:02:47;;;;;;;5.80;3.17;;;6.50;99.90;;;;;;4995120;28;20542;-53
2023/03/04 12:05:40;;;;;;;5.38;3.15;;;6.60;99.90;;;;;;4993223;28;20431;-58
2023/03/04 12:08:38;;;;;;;5.00;3.60;;;6.50;99.90;;;;;;4992202;28;20018;-62
2023/03/04 12:11:42;;;;;;;5.25;3.08;;;6.40;99.90;;;;;;4994096;28;20521;-55
2023/03/04 12:14:51;;;;;;;5.25;3.10;;;6.50;99.90;;;;;;4994892;28;20031;-54
2023/03/04 12:18:09;;;;;;;4.50;3.33;;;6.60;99.90;;;;;;4992338;28;20150;-52
2023/03/04 12:21:04;;;;;;;7.57;4.35;;;6.60;99.90;;;;;;4991197;28;20565;-52
2023/03/04 12:24:30;;;;;;;5.50;3.63;;;6.70;99.90;;;;;;4990631;28;20031;-52
2023/03/04 12:27:53;;;;;;;5.65;4.07;;;6.60;99.90;;;;;;4992945;28;20026;-53
2023/03/04 12:31:02;;;;;;;9.23;4.93;;;6.50;99.90;;;;;;4972174;28;20019;-52
2023/03/04 12:34:26;;;;;;;7.53;4.88;;;6.40;99.90;;;;;;4983985;28;20113;-53
2023/03/04 12:37:31;;;;;;;6.45;4.30;;;6.20;99.90;;;;;;4994826;28;20030;-51
2023/03/04 12:40:20;;;;;;;6.72;3.40;;;6.00;99.90;;;;;;4994703;28;20085;-50
2023/03/04 12:43:26;;;;;;;4.18;3.08;;;6.10;99.90;;;;;;4982847;28;20037;-52
2023/03/04 12:46:21;;;;;;;5.60;3.70;;;6.30;99.90;;;;;;4992629;28;20031;-50
2023/03/04 12:49:16;;;;;;;5.95;3.45;;;6.20;99.90;;;;;;4994023;28;20023;-53
2023/03/04 12:52:10;;;;;;;8.55;3.88;;;6.30;99.90;;;;;;4994011;28;20089;-52
2023/03/04 12:55:01;;;;;;;8.02;3.75;;;6.40;99.90;;;;;;4994014;28;20113;-52
2023/03/04 12:57:49;;;;;;;4.57;3.70;;;6.50;99.90;;;;;;4993633;28;20022;-49
2023/03/04 13:00:59;;;;;;;5.50;3.80;;;6.50;99.90;;;;;;4948005;28;20038;-49
2023/03/04 13:04:08;;;;;;;7.40;3.75;;;6.60;99.90;;;;;;4978880;28;20080;-51
2023/03/04 13:07:20;;;;;;;6.00;4.10;;;6.60;99.90;;;;;;4993550;28;20031;-51
2023/03/04 13:10:11;;;;;;;9.38;4.88;;;6.70;99.90;;;;;;4993035;28;20022;-52
2023/03/04 13:13:00;;;;;;;8.05;4.63;;;6.70;99.90;;;;;;4965572;28;20447;-53
2023/03/04 13:16:02;;;;;;;9.80;5.68;;;6.70;99.90;;;;;;4994430;28;20033;-55
2023/03/04 13:18:48;;;;;;;8.05;5.88;;;6.80;99.90;;;;;;4975219;28;20058;-48
2023/03/04 13:21:45;;;;;;;8.88;5.90;;;6.80;99.90;;;;;;4979833;28;20110;-53
2023/03/04 13:24:46;;;;;;;10.80;6.38;;;6.90;99.90;;;;;;4977452;28;20031;-54
2023/03/04 13:27:50;;;;;;;9.18;6.15;;;6.80;99.90;;;;;;4988415;28;20573;-52
2023/03/04 13:30:39;;;;;;;7.35;5.07;;;6.80;99.90;;;;;;4982458;28;20118;-50
2023/03/04 13:33:24;;;;;;;10.10;5.15;;;6.80;99.90;;;;;;4959962;28;20109;-48
2023/03/04 13:36:30;;;;;;;8.20;4.63;;;6.70;99.90;;;;;;4989242;28;20030;-53
2023/03/04 13:39:16;;;;;;;9.35;4.53;;;6.50;99.90;;;;;;4993379;28;20041;-50
2023/03/04 13:42:03;;;;;;;6.63;4.03;;;6.50;99.90;;;;;;4973813;28;20380;-52
2023/03/04 13:44:57;;;;;;;9.95;4.30;;;6.50;99.90;;;;;;4978347;28;20524;-48
2023/03/04 13:47:46;;;;;;;6.37;3.97;;;6.50;99.90;;;;;;4992656;28;20049;-52
2023/03/04 13:50:43;;;;;;;5.53;3.53;;;6.50;99.90;;;;;;4978511;28;20041;-50
2023/03/04 13:53:42;;;;;;;6.53;3.83;;;6.60;99.90;;;;;;4997159;28;20010;-45
2023/03/04 13:56:43;;;;;;;5.93;3.50;;;6.70;99.90;;;;;;4992847;28;20127;-49
2023/03/04 13:59:41;;;;;;;10.95;4.15;;;6.70;99.90;;;;;;4992278;28;20030;-50
2023/03/04 14:02:33;;;;;;;7.25;4.15;;;6.70;99.90;;;;;;4993291;28;20091;-47
2023/03/04 14:05:19;;;;;;;8.30;4.40;;;6.60;99.90;;;;;;4993285;28;20585;-46
2023/03/04 14:08:19;;;;;;;13.80;5.00;;;6.60;99.90;;;;;;4992130;28;20109;-48
2023/03/04 14:11:09;;;;;;;14.85;5.00;;;6.60;99.90;;;;;;4992834;28;20049;-46
2023/03/04 14:13:57;;;;;;;9.00;5.15;;;6.50;99.90;;;;;;4992978;28;20483;-48
2023/03/04 14:16:50;;;;;;;10.52;5.95;;;6.60;99.90;;;;;;4991870;28;20030;-49
2023/03/04 14:19:44;;;;;;;13.20;6.88;;;6.60;99.90;;;;;;4993376;28;20554;-46
2023/03/04 14:22:36;;;;;;;14.48;6.47;;;6.50;99.90;;;;;;4992677;28;20046;-47
2023/03/04 14:25:34;;;;;;;11.13;6.60;;;6.50;99.90;;;;;;4992080;28;20703;-49
2023/03/04 14:28:20;;;;;;;14.00;6.70;;;6.40;99.90;;;;;;4972155;28;20620;-50
2023/03/04 14:31:15;;;;;;;11.93;6.40;;;6.40;99.90;;;;;;4977023;28;20446;-50
2023/03/04 14:34:01;;;;;;;9.93;5.65;;;6.40;99.90;;;;;;4991358;28;20523;-44
2023/03/04 14:36:47;;;;;;;11.38;6.03;;;6.50;99.90;;;;;;4991284;28;20038;-49
2023/03/04 14:39:35;;;;;;;15.95;6.35;;;6.40;99.90;;;;;;4979315;28;20030;-47